createdAt,value
2023-01-12T00:02:00.860Z,5.43
2023-01-12T00:04:30.946Z,4.57
2023-01-12T00:07:00.294Z,9.80
2023-01-12T00:09:28.739Z,9.73
2023-01-12T00:11:57.053Z,5.35
2023-01-12T00:14:26.835Z,6.85
2023-01-12T00:16:55.150Z,4.93
2023-01-12T00:19:24.343Z,5.53
2023-01-12T00:21:58.223Z,4.57
2023-01-12T00:24:28.381Z,7.00
2023-01-12T00:26:58.565Z,6.82
2023-01-12T00:29:29.415Z,11.02
2023-01-12T00:31:59.115Z,7.18
2023-01-12T00:34:29.705Z,7.20
2023-01-12T00:37:00.615Z,7.53
2023-01-12T00:39:29.494Z,5.55
2023-01-12T00:42:15.350Z,5.07
2023-01-12T00:45:02.804Z,6.82
2023-01-12T00:47:31.745Z,6.25
2023-01-12T00:50:00.194Z,8.77
2023-01-12T00:52:31.409Z,7.95
2023-01-12T00:55:00.559Z,7.68
2023-01-12T00:57:29.457Z,5.25
2023-01-12T01:00:00.097Z,6.68
2023-01-12T01:02:29.679Z,6.45
2023-01-12T01:04:58.109Z,6.72
2023-01-12T01:07:26.487Z,9.70
2023-01-12T01:09:54.925Z,7.13
2023-01-12T01:12:23.324Z,8.48
2023-01-12T01:14:53.352Z,6.70
2023-01-12T01:17:23.124Z,7.53
2023-01-12T01:19:51.499Z,8.52
2023-01-12T01:22:19.904Z,8.77
2023-01-12T01:24:48.620Z,9.70
2023-01-12T01:27:17.058Z,6.13
2023-01-12T01:29:45.443Z,5.32
2023-01-12T01:32:13.765Z,7.47
2023-01-12T01:34:43.879Z,4.07
2023-01-12T01:37:12.894Z,9.00
2023-01-12T01:39:41.811Z,5.75
2023-01-12T01:42:27.704Z,7.20
2023-01-12T01:44:57.969Z,8.35
2023-01-12T01:47:35.912Z,3.75
2023-01-12T01:50:13.010Z,8.55
2023-01-12T01:52:46.160Z,6.53
2023-01-12T01:55:18.964Z,8.57
2023-01-12T01:57:53.607Z,10.00
2023-01-12T02:00:22.764Z,5.38
2023-01-12T02:02:53.325Z,6.88
2023-01-12T02:05:26.598Z,6.47
2023-01-12T02:07:56.017Z,3.15
2023-01-12T02:10:24.431Z,8.38
2023-01-12T02:13:10.343Z,6.80
2023-01-12T02:16:06.354Z,6.50
2023-01-12T02:18:41.896Z,5.72
2023-01-12T02:21:31.527Z,9.02
2023-01-12T02:24:27.553Z,3.85
2023-01-12T02:27:20.259Z,3.97
2023-01-12T02:30:06.521Z,6.05
2023-01-12T02:32:41.466Z,6.72
2023-01-12T02:35:20.952Z,4.68
2023-01-12T02:38:00.708Z,8.73
2023-01-12T02:40:35.787Z,4.75
2023-01-12T02:43:08.942Z,6.75
2023-01-12T02:45:43.309Z,4.22
2023-01-12T02:48:21.821Z,10.48
2023-01-12T02:50:54.046Z,10.13
2023-01-12T02:53:28.607Z,16.38
2023-01-12T02:55:57.757Z,2.40
2023-01-12T02:58:28.237Z,8.80
2023-01-12T03:00:59.374Z,3.70
2023-01-12T03:03:29.323Z,6.13
2023-01-12T03:05:59.924Z,2.17
2023-01-12T03:08:31.169Z,6.63
2023-01-12T03:11:13.069Z,5.03
2023-01-12T03:13:46.094Z,7.20
2023-01-12T03:16:19.549Z,10.48
2023-01-12T03:18:55.224Z,6.72
2023-01-12T03:24:02.169Z,4.85
2023-01-12T03:26:33.368Z,3.67
2023-01-12T03:29:08.820Z,3.95
2023-01-12T03:31:37.867Z,6.07
2023-01-12T03:34:07.942Z,4.55
2023-01-12T03:36:49.218Z,3.67
2023-01-12T03:39:23.965Z,7.28
2023-01-12T03:41:58.375Z,6.35
2023-01-12T03:44:36.795Z,5.18
2023-01-12T03:47:10.776Z,5.07
2023-01-12T03:49:45.620Z,7.90
2023-01-12T03:52:15.082Z,3.60
2023-01-12T03:54:46.727Z,3.45
2023-01-12T03:57:16.842Z,4.93
2023-01-12T03:59:45.243Z,4.55
2023-01-12T04:02:14.358Z,4.00
2023-01-12T04:04:44.210Z,6.05
2023-01-12T04:07:12.549Z,9.00
2023-01-12T04:09:40.926Z,8.25
2023-01-12T04:12:13.474Z,6.13
2023-01-12T04:14:46.143Z,6.05
2023-01-12T04:17:17.097Z,5.47
2023-01-12T04:19:46.843Z,4.75
2023-01-12T04:22:34.495Z,7.47
2023-01-12T04:25:02.944Z,6.35
2023-01-12T04:27:31.484Z,6.63
2023-01-12T04:29:59.935Z,3.20
2023-01-12T04:32:28.273Z,3.30
2023-01-12T04:34:58.047Z,4.72
2023-01-12T04:37:26.441Z,3.33
2023-01-12T04:39:55.037Z,3.30
2023-01-12T04:42:41.477Z,2.33
2023-01-12T04:45:10.906Z,5.75
2023-01-12T04:47:39.332Z,4.60
2023-01-12T04:50:10.455Z,4.50
2023-01-12T04:52:39.257Z,3.38
2023-01-12T04:55:10.768Z,1.17
2023-01-12T04:57:39.186Z,3.88
2023-01-12T05:00:08.872Z,2.80
2023-01-12T05:02:37.206Z,3.05
2023-01-12T05:05:06.625Z,1.60
2023-01-12T05:07:36.380Z,3.92
2023-01-12T05:10:22.481Z,3.40
2023-01-12T05:15:19.056Z,2.50
2023-01-12T05:17:47.398Z,6.93
2023-01-12T05:20:15.864Z,5.85
2023-01-12T05:22:45.618Z,3.28
2023-01-12T05:25:14.034Z,2.40
2023-01-12T05:27:42.430Z,5.13
2023-01-12T05:30:11.544Z,4.75
2023-01-12T05:32:41.208Z,5.30
2023-01-12T05:35:10.312Z,6.13
2023-01-12T05:37:38.761Z,5.80
2023-01-12T05:40:10.243Z,5.63
2023-01-12T05:43:01.775Z,4.22
2023-01-12T05:45:30.201Z,4.50
2023-01-12T05:47:59.221Z,2.45
2023-01-12T05:50:27.657Z,3.35
2023-01-12T05:53:10.719Z,3.78
2023-01-12T05:55:40.558Z,3.83
2023-01-12T05:58:08.947Z,4.40
2023-01-12T06:00:37.407Z,2.90
2023-01-12T06:03:05.820Z,5.60
2023-01-12T06:05:34.157Z,6.68
2023-01-12T06:08:02.847Z,4.00
2023-01-12T06:10:34.229Z,6.72
2023-01-12T06:13:21.356Z,4.32
2023-01-12T06:15:49.820Z,5.95
2023-01-12T06:18:18.712Z,4.68
2023-01-12T06:20:47.114Z,4.97
2023-01-12T06:23:15.531Z,3.72
2023-01-12T06:25:43.928Z,5.00
2023-01-12T06:28:14.877Z,5.10
2023-01-12T06:30:43.317Z,4.30
2023-01-12T06:33:11.712Z,6.20
2023-01-12T06:35:40.167Z,6.07
2023-01-12T06:38:08.497Z,7.75
2023-01-12T06:40:36.868Z,0.73
2023-01-12T06:43:04.702Z,3.10
2023-01-12T06:45:34.532Z,6.20
2023-01-12T06:48:03.108Z,3.45
2023-01-12T06:50:33.260Z,6.65
2023-01-12T06:53:02.043Z,6.18
2023-01-12T06:55:31.078Z,3.22
2023-01-12T06:58:02.893Z,5.40
2023-01-12T07:00:31.920Z,5.78
2023-01-12T07:03:01.612Z,2.00
2023-01-12T07:05:30.050Z,2.70
2023-01-12T07:08:00.309Z,6.18
2023-01-12T07:10:28.766Z,4.00
2023-01-12T07:13:00.849Z,3.53
2023-01-12T07:15:29.258Z,4.38
2023-01-12T07:17:58.239Z,2.65
2023-01-12T07:20:28.551Z,1.65
2023-01-12T07:22:57.178Z,0.95
2023-01-12T07:25:25.752Z,4.22
2023-01-12T07:27:55.522Z,2.10
2023-01-12T07:30:25.122Z,0.95
2023-01-12T07:32:53.828Z,4.03
2023-01-12T07:35:24.928Z,3.45
2023-01-12T07:37:54.896Z,4.05
2023-01-12T07:40:23.480Z,6.22
2023-01-12T07:42:59.395Z,5.00
2023-01-12T07:45:28.723Z,5.18
2023-01-12T07:47:57.769Z,3.10
2023-01-12T07:50:28.206Z,2.55
2023-01-12T07:53:01.601Z,3.17
2023-01-12T07:55:30.623Z,1.40
2023-01-12T07:58:00.509Z,3.10
2023-01-12T08:00:29.625Z,2.55
2023-01-12T08:03:05.540Z,1.00
2023-01-12T08:05:35.148Z,1.42
2023-01-12T08:08:05.582Z,4.30
2023-01-12T08:10:34.067Z,3.60
2023-01-12T08:13:02.448Z,4.28
2023-01-12T08:15:36.709Z,2.13
2023-01-12T08:18:11.075Z,1.85
2023-01-12T08:20:39.567Z,1.33
2023-01-12T08:23:13.792Z,3.05
2023-01-12T08:25:46.495Z,4.75
2023-01-12T08:28:18.607Z,1.65
2023-01-12T08:30:49.701Z,4.13
2023-01-12T08:33:18.172Z,0.85
2023-01-12T08:35:47.372Z,3.67
2023-01-12T08:38:18.258Z,2.13
2023-01-12T08:41:04.494Z,1.20
2023-01-12T08:43:50.383Z,1.67
2023-01-12T08:46:18.976Z,0.85
2023-01-12T08:48:47.300Z,1.40
2023-01-12T08:51:15.707Z,1.88
2023-01-12T08:53:45.400Z,1.42
2023-01-12T08:56:13.843Z,2.95
2023-01-12T08:58:43.014Z,2.40
2023-01-12T09:01:14.163Z,2.42
2023-01-12T09:03:44.151Z,2.20
2023-01-12T09:06:14.546Z,0.82
2023-01-12T09:08:44.842Z,1.75
2023-01-12T09:11:14.662Z,3.30
2023-01-12T09:13:43.227Z,1.60
2023-01-12T09:16:14.226Z,3.08
2023-01-12T09:18:43.601Z,0.98
2023-01-12T09:21:14.333Z,2.88
2023-01-12T09:23:43.336Z,3.35
2023-01-12T09:26:14.648Z,1.90
2023-01-12T09:28:44.391Z,2.00
2023-01-12T09:31:16.454Z,2.03
2023-01-12T09:33:47.016Z,1.15
2023-01-12T09:36:17.524Z,1.35
2023-01-12T09:38:47.045Z,1.00
2023-01-12T09:41:41.278Z,2.15
2023-01-12T09:44:35.620Z,4.25
2023-01-12T09:47:06.455Z,1.85
2023-01-12T09:49:38.709Z,3.13
2023-01-12T09:52:14.251Z,0.50
2023-01-12T09:54:43.018Z,2.35
2023-01-12T09:57:43.790Z,0.52
2023-01-12T10:00:13.835Z,2.80
2023-01-12T10:02:46.489Z,1.33
2023-01-12T10:05:38.608Z,2.00
2023-01-12T10:08:16.084Z,4.35
2023-01-12T10:10:58.069Z,1.58
2023-01-12T10:13:40.672Z,2.22
2023-01-12T10:16:17.605Z,1.95
2023-01-12T10:18:49.729Z,1.17
2023-01-12T10:21:18.153Z,2.53
2023-01-12T10:23:46.891Z,3.83
2023-01-12T10:26:22.032Z,2.25
2023-01-12T10:28:54.559Z,1.10
2023-01-12T10:31:25.087Z,0.77
2023-01-12T10:34:04.958Z,2.53
2023-01-12T10:36:35.183Z,1.70
2023-01-12T10:39:05.679Z,2.72
2023-01-12T10:41:35.726Z,2.65
2023-01-12T10:44:15.831Z,1.65
2023-01-12T10:46:44.302Z,1.67
2023-01-12T10:49:20.710Z,3.30
2023-01-12T10:51:53.699Z,0.70
2023-01-12T10:54:25.100Z,2.17
2023-01-12T10:57:00.021Z,1.05
2023-01-12T10:59:32.880Z,1.98
2023-01-12T11:02:16.126Z,1.63
2023-01-12T11:04:46.401Z,5.53
2023-01-12T11:07:18.784Z,1.75
2023-01-12T11:09:47.325Z,1.10
2023-01-12T11:12:26.296Z,2.00
2023-01-12T11:15:02.422Z,1.88
2023-01-12T11:17:43.236Z,3.63
2023-01-12T11:20:20.462Z,1.75
2023-01-12T11:22:52.371Z,2.53
2023-01-12T11:25:24.078Z,1.55
2023-01-12T11:27:58.055Z,0.75
2023-01-12T11:30:36.908Z,0.50
2023-01-12T11:33:11.786Z,1.08
2023-01-12T11:35:45.909Z,3.30
2023-01-12T11:38:20.514Z,1.20
2023-01-12T11:40:50.121Z,2.40
2023-01-12T11:43:47.773Z,1.20
2023-01-12T11:46:23.731Z,1.35
2023-01-12T11:49:00.737Z,0.50
2023-01-12T11:51:29.311Z,3.70
2023-01-12T11:53:58.492Z,0.95
2023-01-12T11:56:43.412Z,1.88
2023-01-12T11:59:19.641Z,2.75
2023-01-12T12:01:58.300Z,0.77
2023-01-12T12:04:42.535Z,0.85
2023-01-12T12:07:26.806Z,0.88
2023-01-12T12:10:22.361Z,3.63
2023-01-12T12:13:22.208Z,1.27
2023-01-12T12:15:59.916Z,1.23
2023-01-12T12:18:43.770Z,1.77
2023-01-12T12:21:34.387Z,1.65
2023-01-12T12:24:13.126Z,0.85
2023-01-12T12:26:48.117Z,0.55
2023-01-12T12:29:29.620Z,0.35
2023-01-12T12:32:16.058Z,1.85
2023-01-12T12:35:06.455Z,1.55
2023-01-12T12:37:58.453Z,0.40
2023-01-12T12:40:58.134Z,1.65
2023-01-12T12:43:49.217Z,0.35
2023-01-12T12:46:26.246Z,0.50
2023-01-12T12:49:00.896Z,0.90
2023-01-12T12:51:33.295Z,2.35
2023-01-12T12:54:06.327Z,0.52
2023-01-12T12:56:36.441Z,1.65
2023-01-12T12:59:05.358Z,1.27
2023-01-12T13:01:42.498Z,2.55
2023-01-12T13:04:12.705Z,1.98
2023-01-12T13:06:50.732Z,0.47
2023-01-12T13:09:38.004Z,2.78
2023-01-12T13:12:34.514Z,1.17
2023-01-12T13:17:48.814Z,0.90
2023-01-12T13:20:38.814Z,1.65
2023-01-12T13:23:40.494Z,0.70
2023-01-12T13:26:25.507Z,0.93
2023-01-12T13:29:27.102Z,0.35
2023-01-12T13:31:59.151Z,0.75
2023-01-12T13:34:41.781Z,0.73
2023-01-12T13:37:20.903Z,1.63
2023-01-12T13:39:56.584Z,1.48
2023-01-12T13:45:18.765Z,0.52
2023-01-12T13:47:49.787Z,0.68
2023-01-12T13:50:20.789Z,0.50
2023-01-12T13:52:58.060Z,2.58
2023-01-12T13:55:28.340Z,0.70
2023-01-12T13:58:01.487Z,0.57
2023-01-12T14:00:32.284Z,1.20
2023-01-12T14:03:02.938Z,0.82
2023-01-12T14:05:46.156Z,0.80
2023-01-12T14:08:39.595Z,0.55
2023-01-12T14:11:42.091Z,0.55
2023-01-12T14:14:46.942Z,0.60
2023-01-12T14:17:41.614Z,2.00
2023-01-12T14:20:15.468Z,0.70
2023-01-12T14:22:47.857Z,0.98
2023-01-12T14:25:20.368Z,1.15
2023-01-12T14:27:53.256Z,0.60
2023-01-12T14:30:26.018Z,1.90
2023-01-12T14:32:55.378Z,1.08
2023-01-12T14:35:25.947Z,3.15
2023-01-12T14:37:58.131Z,0.70
2023-01-12T14:40:30.160Z,0.68
2023-01-12T14:43:17.038Z,1.52
2023-01-12T14:46:17.459Z,0.77
2023-01-12T14:48:55.972Z,0.43
2023-01-12T14:51:26.580Z,0.95
2023-01-12T14:54:00.968Z,0.40
2023-01-12T14:56:40.377Z,0.57
2023-01-12T14:59:25.401Z,0.75
2023-01-12T15:02:17.755Z,0.50
2023-01-12T15:05:01.422Z,0.40
2023-01-12T15:07:35.606Z,0.85
2023-01-12T15:10:28.923Z,0.50
2023-01-12T15:12:59.054Z,1.33
2023-01-12T15:15:50.816Z,0.45
2023-01-12T15:18:38.325Z,0.40
2023-01-12T15:21:24.956Z,1.08
2023-01-12T15:24:35.114Z,1.83
2023-01-12T15:27:19.410Z,1.13
2023-01-12T15:29:48.316Z,1.15
2023-01-12T15:32:21.750Z,0.98
2023-01-12T15:34:51.828Z,0.52
2023-01-12T15:37:29.362Z,1.65
2023-01-12T15:39:59.754Z,0.55
2023-01-12T15:42:28.262Z,1.77
2023-01-12T15:44:56.956Z,0.80
2023-01-12T15:47:36.219Z,1.25
2023-01-12T15:50:07.098Z,1.60
2023-01-12T15:52:35.741Z,1.40
2023-01-12T15:55:05.304Z,0.98
2023-01-12T15:57:33.709Z,1.50
2023-01-12T16:00:02.537Z,0.95
2023-01-12T16:02:38.405Z,0.40
2023-01-12T16:05:11.355Z,5.38
2023-01-12T16:07:39.834Z,1.10
2023-01-12T16:10:08.941Z,1.10
2023-01-12T16:12:37.993Z,0.50
2023-01-12T16:15:08.871Z,1.38
2023-01-12T16:17:47.718Z,1.88
2023-01-12T16:20:19.561Z,1.25
2023-01-12T16:22:48.518Z,0.50
2023-01-12T16:25:17.390Z,0.82
2023-01-12T16:27:45.764Z,0.73
2023-01-12T16:30:16.191Z,1.75
2023-01-12T16:32:46.624Z,0.82
2023-01-12T16:35:17.095Z,2.63
2023-01-12T16:37:45.623Z,0.47
2023-01-12T16:40:14.377Z,1.65
2023-01-12T16:42:42.777Z,0.40
2023-01-12T16:45:11.623Z,0.73
2023-01-12T16:47:40.178Z,0.88
2023-01-12T16:50:09.518Z,1.48
2023-01-12T16:52:41.839Z,0.75
2023-01-12T16:55:10.734Z,0.98
2023-01-12T16:57:40.780Z,1.70
2023-01-12T17:00:10.604Z,2.55
2023-01-12T17:02:40.576Z,1.02
2023-01-12T17:05:10.302Z,0.70
2023-01-12T17:07:40.125Z,1.30
2023-01-12T17:10:10.252Z,0.75
2023-01-12T17:12:38.953Z,2.30
2023-01-12T17:15:23.565Z,3.00
2023-01-12T17:17:52.349Z,3.90
2023-01-12T17:20:21.333Z,3.33
2023-01-12T17:22:51.706Z,1.05
2023-01-12T17:25:20.312Z,0.73
2023-01-12T17:27:48.702Z,1.90
2023-01-12T17:30:17.872Z,1.02
2023-01-12T17:32:46.418Z,1.83
2023-01-12T17:35:15.366Z,2.15
2023-01-12T17:37:43.769Z,1.15
2023-01-12T17:40:13.939Z,2.25
2023-01-12T17:42:59.744Z,1.85
2023-01-12T17:45:28.216Z,0.65
2023-01-12T17:47:56.603Z,1.30
2023-01-12T17:50:25.596Z,1.10
2023-01-12T17:52:54.971Z,1.35
2023-01-12T17:55:24.747Z,0.63
2023-01-12T17:57:53.820Z,1.48
2023-01-12T18:00:23.258Z,1.33
2023-01-12T18:02:51.752Z,0.65
2023-01-12T18:05:20.201Z,1.08
2023-01-12T18:07:48.796Z,2.15
2023-01-12T18:10:17.849Z,0.90
2023-01-12T18:12:50.511Z,1.05
2023-01-12T18:15:19.856Z,1.00
2023-01-12T18:17:48.218Z,0.85
2023-01-12T18:20:17.113Z,0.93
2023-01-12T18:22:45.893Z,1.25
2023-01-12T18:25:14.275Z,0.50
2023-01-12T18:27:44.793Z,2.40
2023-01-12T18:30:14.940Z,0.60
2023-01-12T18:32:43.413Z,1.70
2023-01-12T18:35:13.756Z,0.80
2023-01-12T18:37:42.448Z,0.60
2023-01-12T18:40:12.304Z,2.08
2023-01-12T18:42:53.143Z,1.95
2023-01-12T18:45:24.107Z,1.17
2023-01-12T18:48:10.245Z,0.75
2023-01-12T18:53:25.428Z,1.17
2023-01-12T18:55:57.000Z,1.98
2023-01-12T18:58:28.086Z,2.83
2023-01-12T19:00:59.988Z,1.25
2023-01-12T19:03:28.468Z,0.65
2023-01-12T19:06:00.926Z,1.17
2023-01-12T19:08:48.133Z,0.93
2023-01-12T19:11:17.501Z,1.48
2023-01-12T19:14:03.415Z,0.70
2023-01-12T19:16:50.063Z,0.80
2023-01-12T19:19:22.535Z,0.73
2023-01-12T19:22:08.624Z,1.63
2023-01-12T19:27:40.826Z,1.25
2023-01-12T19:30:10.554Z,0.82
2023-01-12T19:32:40.878Z,1.48
2023-01-12T19:35:11.841Z,1.52
2023-01-12T19:37:42.483Z,4.78
2023-01-12T19:40:18.287Z,1.90
2023-01-12T19:43:04.486Z,1.15
2023-01-12T19:48:03.556Z,0.85
2023-01-12T19:50:32.027Z,0.85
2023-01-12T19:53:00.830Z,1.13
2023-01-12T19:55:29.859Z,2.75
2023-01-12T19:57:58.669Z,2.17
2023-01-12T20:00:28.097Z,1.90
2023-01-12T20:02:56.749Z,1.60
2023-01-12T20:14:28.193Z,0.60
2023-01-12T20:16:56.845Z,1.55
2023-01-12T20:19:25.301Z,0.95
2023-01-12T20:21:54.405Z,2.03
2023-01-12T20:24:22.859Z,1.42
2023-01-12T20:26:51.454Z,1.83
2023-01-12T20:29:23.396Z,0.47
2023-01-12T20:31:52.894Z,0.82
2023-01-12T20:34:22.286Z,0.90
2023-01-12T20:36:50.799Z,2.03
2023-01-12T20:39:19.215Z,0.90
2023-01-12T20:41:50.276Z,0.40
2023-01-12T20:44:22.864Z,0.57
2023-01-12T20:46:51.307Z,0.75
2023-01-12T20:49:20.371Z,0.52
2023-01-12T20:51:49.393Z,1.90
2023-01-12T20:54:17.837Z,0.95
2023-01-12T20:56:46.155Z,1.52
2023-01-12T20:59:15.247Z,1.50
2023-01-12T21:01:45.579Z,0.70
2023-01-12T21:04:14.034Z,0.70
2023-01-12T21:06:43.375Z,0.73
2023-01-12T21:09:11.873Z,0.52
2023-01-12T21:11:42.163Z,0.85
2023-01-12T21:14:10.628Z,0.63
2023-01-12T21:16:39.003Z,2.05
2023-01-12T21:19:09.159Z,0.70
2023-01-12T21:21:37.719Z,1.02
2023-01-12T21:24:06.830Z,1.05
2023-01-12T21:26:35.216Z,0.70
2023-01-12T21:29:03.708Z,0.60
2023-01-12T21:31:32.365Z,0.55
2023-01-12T21:34:00.937Z,1.58
2023-01-12T21:36:30.787Z,0.45
2023-01-12T21:38:59.222Z,0.70
2023-01-12T21:41:27.680Z,1.02
2023-01-12T21:43:55.093Z,1.15
2023-01-12T21:46:23.485Z,0.50
2023-01-12T21:48:51.976Z,2.63
2023-01-12T21:51:20.327Z,1.67
2023-01-12T21:53:50.120Z,1.02
2023-01-12T21:56:18.728Z,0.73
2023-01-12T21:58:47.071Z,1.90
2023-01-12T22:01:15.768Z,0.82
2023-01-12T22:03:45.006Z,0.75
2023-01-12T22:06:14.240Z,0.80
2023-01-12T22:08:43.411Z,0.60
2023-01-12T22:11:15.344Z,0.68
2023-01-12T22:13:44.358Z,0.85
2023-01-12T22:16:15.441Z,1.02
2023-01-12T22:18:47.070Z,1.45
2023-01-12T22:21:16.387Z,0.80
2023-01-12T22:23:45.370Z,0.70
2023-01-12T22:26:16.466Z,1.58
2023-01-12T22:28:46.874Z,0.70
2023-01-12T22:31:17.256Z,0.40
2023-01-12T22:33:46.844Z,0.60
2023-01-12T22:36:15.606Z,0.50
2023-01-12T22:38:44.126Z,0.60
2023-01-12T22:41:14.878Z,0.65
2023-01-12T22:43:44.606Z,0.68
2023-01-12T22:46:14.634Z,0.73
2023-01-12T22:48:43.331Z,0.50
2023-01-12T22:51:11.847Z,0.70
2023-01-12T22:53:40.338Z,0.63
2023-01-12T22:56:10.526Z,0.52
2023-01-12T22:58:40.588Z,1.08
2023-01-12T23:01:10.485Z,0.80
2023-01-12T23:03:39.015Z,0.50
2023-01-12T23:06:07.958Z,0.70
2023-01-12T23:08:36.325Z,0.68
2023-01-12T23:11:06.196Z,0.65
2023-01-12T23:13:34.922Z,0.73
2023-01-12T23:16:06.901Z,0.40
2023-01-12T23:18:37.335Z,1.83
2023-01-12T23:21:11.035Z,1.40
2023-01-12T23:23:39.863Z,2.25
2023-01-12T23:26:10.937Z,0.70
2023-01-12T23:28:43.690Z,0.40
2023-01-12T23:31:15.865Z,0.90
2023-01-12T23:33:44.734Z,0.60
2023-01-12T23:36:15.146Z,0.50
2023-01-12T23:38:44.044Z,0.50
2023-01-12T23:41:14.331Z,0.50
2023-01-12T23:43:43.111Z,0.60
2023-01-12T23:46:13.430Z,0.40
2023-01-12T23:48:42.381Z,0.50
2023-01-12T23:51:10.912Z,0.88
2023-01-12T23:53:39.338Z,0.80
2023-01-12T23:56:09.852Z,0.50
2023-01-12T23:58:39.139Z,0.47
